world map with MAX marked

MAX - Airport

This information may not be accurate or current and is not valid for navigation or flight planning. No warranty of fitness for any purpose is made or implied.

flag of Senegal

Donate via PayPal

Additional information is available on the NEW Great Circle Mapper

Location
City:  Matam, Matam, Senegal
Name:Ouro Sogui Airport
ICAO / IATA:GOSM / MAX

Details
Type:Airport (Aerodrome, Airfield)
Latitude:15°35'37"N (15.593611)
Longitude:13°19'22"W (-13.322777)
Elevation:85 ft (26 m)
Runways:1
Longest:6299 ft (1920 m)

Time
Timezone:UTC+0 (DST+2)
Local Time:

Weather
METAR:GOSM  041200Z 12002KT CAVOK 33/09 Q1014

Related Locations
Nearby:
Farthest:SON: 12413 mi / 19977 km
Espíritu Santo (Luganville) [Santo-Pekoa Intl], Espíritu Santo Island, SAM, VU

Find:

   beyond  
but within

Other Information
Maps:
Sources:

  


 


Great Circle Mapper   Great Circle Mapper
Great Circle Mapper FAQ   Great Circle Mapper FAQ
  Karl's Home Page
KLS˛   KLS˛ Home
   GC on Facebook
Airlines of the World   Airlines of the World
Donate via PayPal


Copyright © 2004-2019, Karl L. Swartz. All rights reserved.
All trademarks mentioned herein belong to their respective owners.

Please see credits for attribution and copyright information.

Karl Swartz <karl@kls2.com>
  Powered by FreeBSD
Valid HTML 4.01!
Labeled with ICRA
hCard Microformat
Geo Microformat